Time;durP1;ratioP1;P1;durP2;ratioP2;P2;SDS_P1;SDS_P2;PMS_P1;PMS_P2;Temp;Humidity;BMP_temperature;BMP_pressure;BME280_temperature;BME280_humidity;BME280_pressure;Samples;Min_cycle;Max_cycle;Signal;HPM_P1;HPM_P2
2022/06/26 00:01:42;;;;;;;4.20;1.27;;;19.50;84.20;;;;;;4953842;28;20031;-69
2022/06/26 00:04:08;;;;;;;3.33;1.30;;;19.60;84.10;;;;;;4944538;28;20035;-68
2022/06/26 00:06:37;;;;;;;3.78;1.30;;;19.60;84.20;;;;;;4962338;28;20038;-68
2022/06/26 00:09:06;;;;;;;2.90;1.17;;;19.70;83.80;;;;;;4965098;28;20321;-68
2022/06/26 00:11:34;;;;;;;2.22;1.15;;;19.80;83.50;;;;;;4966805;28;20435;-67
2022/06/26 00:14:00;;;;;;;2.45;1.10;;;19.80;83.60;;;;;;4952255;28;20383;-68
2022/06/26 00:16:31;;;;;;;2.83;1.40;;;19.90;83.60;;;;;;4956366;28;20058;-68
2022/06/26 00:19:05;;;;;;;4.93;1.58;;;19.70;84.80;;;;;;4953760;28;20428;-69
2022/06/26 00:21:34;;;;;;;2.70;1.35;;;19.40;86.20;;;;;;4965047;28;20031;-69
2022/06/26 00:24:01;;;;;;;3.70;1.30;;;19.20;87.00;;;;;;4991497;28;20057;-68
2022/06/26 00:26:27;;;;;;;3.53;1.55;;;19.20;87.30;;;;;;4950575;28;20028;-68
2022/06/26 00:28:53;;;;;;;2.90;1.63;;;19.10;87.90;;;;;;4951806;28;20118;-69
2022/06/26 00:31:18;;;;;;;3.42;1.73;;;19.00;88.70;;;;;;4954432;28;20050;-68
2022/06/26 00:33:44;;;;;;;7.13;1.90;;;18.80;89.20;;;;;;4957714;28;20106;-69
2022/06/26 00:36:10;;;;;;;5.95;1.90;;;18.70;90.00;;;;;;4958984;28;20035;-68
2022/06/26 00:38:36;;;;;;;8.70;2.33;;;18.60;90.40;;;;;;4955826;28;20117;-68
2022/06/26 00:41:01;;;;;;;4.78;1.90;;;18.50;90.70;;;;;;4955717;28;20102;-69
2022/06/26 00:43:28;;;;;;;4.15;1.80;;;18.40;91.30;;;;;;4960013;28;20043;-68
2022/06/26 00:45:54;;;;;;;4.20;1.80;;;18.30;91.60;;;;;;4952654;28;20462;-68
2022/06/26 00:48:20;;;;;;;4.25;2.15;;;18.30;92.10;;;;;;4960019;28;20039;-68
2022/06/26 00:50:46;;;;;;;4.20;2.00;;;18.30;92.20;;;;;;4955236;28;20039;-68
2022/06/26 00:53:12;;;;;;;5.63;2.45;;;18.30;92.50;;;;;;4978442;28;20026;-68
2022/06/26 00:55:38;;;;;;;4.78;2.30;;;18.20;92.70;;;;;;4955340;28;20031;-69
2022/06/26 00:58:04;;;;;;;4.18;2.30;;;18.10;93.00;;;;;;4954940;28;20336;-68
2022/06/26 01:00:32;;;;;;;3.80;2.00;;;18.20;93.00;;;;;;4961942;28;20044;-69
2022/06/26 01:02:58;;;;;;;5.45;2.38;;;18.10;93.10;;;;;;4963265;28;20035;-68
2022/06/26 01:05:23;;;;;;;5.38;1.88;;;18.20;93.10;;;;;;4952947;28;20027;-68
2022/06/26 01:07:49;;;;;;;4.40;2.15;;;18.10;93.30;;;;;;4959799;28;20100;-68
2022/06/26 01:10:15;;;;;;;4.30;2.00;;;18.10;93.40;;;;;;4941578;28;20028;-69
2022/06/26 01:12:41;;;;;;;6.75;2.45;;;18.10;93.20;;;;;;4952455;28;20057;-68
2022/06/26 01:15:08;;;;;;;4.18;2.00;;;18.20;93.20;;;;;;4947343;28;20059;-69
2022/06/26 01:17:34;;;;;;;3.67;2.00;;;18.20;93.20;;;;;;4934226;28;20034;-68
2022/06/26 01:20:01;;;;;;;3.58;2.17;;;18.20;93.20;;;;;;4944608;28;20058;-68
2022/06/26 01:22:28;;;;;;;3.35;1.90;;;18.20;93.40;;;;;;4959394;28;20077;-68
2022/06/26 01:24:54;;;;;;;3.22;1.70;;;18.20;93.00;;;;;;4997877;28;20016;-68
2022/06/26 01:27:20;;;;;;;4.10;2.10;;;18.20;93.20;;;;;;4953757;28;20323;-68
2022/06/26 01:29:45;;;;;;;3.28;1.95;;;18.20;93.30;;;;;;4955042;28;20039;-68
2022/06/26 01:32:11;;;;;;;5.50;2.10;;;18.20;93.60;;;;;;4953683;28;20114;-69
2022/06/26 01:34:40;;;;;;;4.32;1.98;;;18.10;93.80;;;;;;4950541;28;20049;-68
2022/06/26 01:37:05;;;;;;;3.53;1.83;;;18.10;93.90;;;;;;4959393;28;20034;-68
2022/06/26 01:39:31;;;;;;;4.15;1.98;;;18.00;94.10;;;;;;4945605;28;20035;-68
2022/06/26 01:41:57;;;;;;;3.28;1.80;;;18.00;94.10;;;;;;4940201;28;20035;-69
2022/06/26 01:44:22;;;;;;;4.00;2.03;;;18.00;94.30;;;;;;4955448;28;20038;-68
2022/06/26 01:46:48;;;;;;;3.45;1.80;;;18.00;94.10;;;;;;4955721;28;20106;-68
2022/06/26 01:49:14;;;;;;;3.70;1.85;;;18.00;94.20;;;;;;4951093;28;20077;-69
2022/06/26 01:51:43;;;;;;;5.57;1.90;;;18.00;94.10;;;;;;4954665;28;20020;-68
2022/06/26 01:54:09;;;;;;;4.40;1.67;;;17.90;94.30;;;;;;4955987;28;20029;-68
2022/06/26 01:56:34;;;;;;;3.08;1.63;;;17.90;94.50;;;;;;4953855;28;20046;-68
2022/06/26 01:59:05;;;;;;;3.42;1.90;;;17.80;94.20;;;;;;4943310;28;20039;-67
2022/06/26 02:01:33;;;;;;;3.70;2.03;;;17.80;94.70;;;;;;4947155;28;20023;-68
2022/06/26 02:03:59;;;;;;;4.65;1.98;;;17.90;95.00;;;;;;4952034;28;20412;-69
2022/06/26 02:06:24;;;;;;;3.30;2.03;;;17.80;95.40;;;;;;4952545;28;20039;-70
2022/06/26 02:08:50;;;;;;;4.85;1.92;;;17.70;95.50;;;;;;4941157;28;20417;-69
2022/06/26 02:14:00;;;;;;;3.97;2.05;;;17.40;95.90;;;;;;4956338;28;20390;-68
2022/06/26 02:16:29;;;;;;;3.60;2.10;;;17.30;96.20;;;;;;4948920;28;20035;-69
2022/06/26 02:18:57;;;;;;;4.70;2.10;;;17.20;96.40;;;;;;4956938;28;20038;-69
2022/06/26 02:21:28;;;;;;;5.05;2.20;;;17.10;96.40;;;;;;4951014;28;20050;-69
2022/06/26 02:23:54;;;;;;;4.47;2.40;;;17.10;96.30;;;;;;4958208;28;20336;-69
2022/06/26 02:26:20;;;;;;;3.85;2.25;;;17.00;96.50;;;;;;4957485;28;20217;-68
2022/06/26 02:28:49;;;;;;;3.70;2.20;;;17.00;96.40;;;;;;4958924;28;20097;-68
2022/06/26 02:31:16;;;;;;;4.22;2.20;;;17.00;96.40;;;;;;4943253;28;20027;-68
2022/06/26 02:33:42;;;;;;;3.50;2.15;;;17.00;96.60;;;;;;4953006;28;20422;-68
2022/06/26 02:36:08;;;;;;;4.32;2.40;;;17.00;96.50;;;;;;4951241;28;20107;-69
2022/06/26 02:38:35;;;;;;;4.03;2.30;;;17.00;96.50;;;;;;4953367;28;20371;-67
2022/06/26 02:41:01;;;;;;;4.55;2.33;;;17.10;96.70;;;;;;4980225;28;20031;-69
2022/06/26 02:43:27;;;;;;;4.88;2.20;;;17.10;96.80;;;;;;4955682;28;20043;-69
2022/06/26 02:45:53;;;;;;;5.20;2.40;;;17.10;96.80;;;;;;4953678;28;20058;-69
2022/06/26 02:48:20;;;;;;;5.35;2.10;;;17.10;96.70;;;;;;4954834;28;20035;-69
2022/06/26 02:50:53;;;;;;;4.60;2.10;;;17.00;96.60;;;;;;4956266;28;20050;-68
2022/06/26 02:53:19;;;;;;;4.78;2.22;;;16.90;96.50;;;;;;4948823;28;20123;-68
2022/06/26 02:55:44;;;;;;;5.45;2.40;;;16.90;96.30;;;;;;4947884;28;20115;-68
2022/06/26 02:58:10;;;;;;;4.35;2.50;;;16.80;96.10;;;;;;4948781;28;20039;-68
2022/06/26 03:00:36;;;;;;;4.20;2.28;;;16.80;96.30;;;;;;4954456;28;20149;-69
2022/06/26 03:03:03;;;;;;;4.20;2.33;;;16.70;96.50;;;;;;4947830;28;20031;-69
2022/06/26 03:05:30;;;;;;;3.97;2.00;;;16.70;96.50;;;;;;4951206;28;20050;-69
2022/06/26 03:07:59;;;;;;;4.72;1.90;;;16.70;97.00;;;;;;4948516;28;20178;-69
2022/06/26 03:10:25;;;;;;;4.13;2.03;;;16.70;96.50;;;;;;4955524;28;20419;-68
2022/06/26 03:12:52;;;;;;;3.53;1.92;;;16.60;96.20;;;;;;4954359;28;20074;-68
2022/06/26 03:15:19;;;;;;;4.55;2.45;;;16.60;95.90;;;;;;4959750;28;20046;-68
2022/06/26 03:17:45;;;;;;;4.82;1.90;;;16.50;96.00;;;;;;4949227;29;20020;-69
2022/06/26 03:20:14;;;;;;;3.90;2.25;;;16.50;96.10;;;;;;4953322;28;20062;-69
2022/06/26 03:22:39;;;;;;;3.40;2.00;;;16.50;96.30;;;;;;4947549;29;20089;-69
2022/06/26 03:25:06;;;;;;;3.95;2.30;;;16.40;96.30;;;;;;4959668;28;20024;-68
2022/06/26 03:27:32;;;;;;;4.10;2.42;;;16.40;96.10;;;;;;4942497;28;20380;-68
2022/06/26 03:29:58;;;;;;;8.73;2.45;;;16.40;96.20;;;;;;4955425;28;20102;-68
2022/06/26 03:32:24;;;;;;;4.78;2.25;;;16.30;95.70;;;;;;4953838;28;20027;-68
2022/06/26 03:34:50;;;;;;;5.03;2.55;;;16.30;95.40;;;;;;4958486;28;20031;-68
2022/06/26 03:37:15;;;;;;;4.20;2.20;;;16.20;95.60;;;;;;4954852;28;20555;-69
2022/06/26 03:39:41;;;;;;;3.90;2.10;;;16.20;95.50;;;;;;4941150;28;20032;-68
2022/06/26 03:42:07;;;;;;;6.55;2.50;;;16.10;95.30;;;;;;4957657;28;20019;-68
2022/06/26 03:44:32;;;;;;;6.50;2.85;;;16.10;95.50;;;;;;4956115;28;20367;-69
2022/06/26 03:46:58;;;;;;;4.25;2.03;;;16.10;95.40;;;;;;4947886;29;20084;-67
2022/06/26 03:49:24;;;;;;;4.00;2.30;;;16.10;95.50;;;;;;4940097;28;20032;-68
2022/06/26 03:51:50;;;;;;;3.45;2.30;;;16.10;95.50;;;;;;4942986;28;20031;-69
2022/06/26 03:54:16;;;;;;;6.68;2.17;;;16.10;95.30;;;;;;4948774;28;20032;-68
2022/06/26 03:56:42;;;;;;;4.30;2.25;;;16.10;95.60;;;;;;4967022;28;20027;-68
2022/06/26 03:59:08;;;;;;;7.50;2.20;;;16.20;95.50;;;;;;4950822;28;20066;-69
2022/06/26 04:01:34;;;;;;;5.68;2.33;;;16.20;95.80;;;;;;4962986;28;20073;-68
2022/06/26 04:03:59;;;;;;;6.07;2.03;;;16.20;95.90;;;;;;4949275;28;20023;-68
2022/06/26 04:06:25;;;;;;;4.18;2.20;;;16.30;96.10;;;;;;4951342;28;20027;-69
2022/06/26 04:08:51;;;;;;;3.60;2.17;;;16.30;96.10;;;;;;4960091;28;20340;-69
2022/06/26 04:11:16;;;;;;;3.53;2.03;;;16.40;96.40;;;;;;4982363;28;20031;-68
2022/06/26 04:13:42;;;;;;;4.20;2.03;;;16.40;96.50;;;;;;4945921;28;20044;-68
2022/06/26 04:16:08;;;;;;;4.10;2.22;;;16.50;96.50;;;;;;4950683;28;20031;-68
2022/06/26 04:18:36;;;;;;;4.75;2.10;;;16.50;96.50;;;;;;4943590;28;20094;-68
2022/06/26 04:21:04;;;;;;;4.88;1.90;;;16.60;96.50;;;;;;4949026;28;20035;-68
2022/06/26 04:23:30;;;;;;;3.40;2.05;;;16.60;96.80;;;;;;4949337;28;20078;-69
2022/06/26 04:25:55;;;;;;;5.25;2.33;;;16.70;96.80;;;;;;4959736;28;20028;-68
2022/06/26 04:28:21;;;;;;;4.97;2.38;;;16.70;96.90;;;;;;4952396;28;20125;-68
2022/06/26 04:30:46;;;;;;;7.30;2.10;;;16.70;97.00;;;;;;4946233;28;20040;-68
2022/06/26 04:33:12;;;;;;;3.65;2.00;;;16.70;96.80;;;;;;4954643;28;20023;-68
2022/06/26 04:35:38;;;;;;;4.32;2.10;;;16.60;96.90;;;;;;4953982;29;20031;-68
2022/06/26 04:38:04;;;;;;;5.15;2.08;;;16.60;96.90;;;;;;4955188;28;20031;-68
2022/06/26 04:40:30;;;;;;;5.93;2.25;;;16.60;96.80;;;;;;4950042;28;20035;-67
2022/06/26 04:42:55;;;;;;;4.22;1.98;;;16.70;97.20;;;;;;4950086;29;20124;-68
2022/06/26 04:45:22;;;;;;;5.75;2.38;;;16.70;97.20;;;;;;4949705;28;20030;-68
2022/06/26 04:47:48;;;;;;;4.30;2.30;;;16.80;97.00;;;;;;4944628;28;20062;-68
2022/06/26 04:50:13;;;;;;;4.20;2.00;;;16.80;97.00;;;;;;4953915;28;20054;-69
2022/06/26 04:52:43;;;;;;;4.28;2.00;;;16.80;97.00;;;;;;4951294;28;20080;-68
2022/06/26 04:55:09;;;;;;;3.33;1.70;;;16.80;96.90;;;;;;4959629;28;20062;-68
2022/06/26 04:57:35;;;;;;;4.68;1.73;;;16.90;97.00;;;;;;4966399;28;20023;-68
2022/06/26 05:00:00;;;;;;;3.58;2.00;;;16.90;96.90;;;;;;4952202;28;20067;-69
2022/06/26 05:02:26;;;;;;;5.25;1.95;;;17.00;97.00;;;;;;4984668;28;20483;-69
2022/06/26 05:04:51;;;;;;;3.80;1.80;;;17.00;97.10;;;;;;4979215;28;20065;-69
2022/06/26 05:07:17;;;;;;;4.25;1.80;;;17.20;97.20;;;;;;4950567;28;20398;-68
2022/06/26 05:09:43;;;;;;;5.53;2.00;;;17.30;97.40;;;;;;4945993;29;20336;-69
2022/06/26 05:12:08;;;;;;;6.35;2.10;;;17.40;97.30;;;;;;4988835;28;20083;-68
2022/06/26 05:14:34;;;;;;;3.63;2.03;;;17.40;97.30;;;;;;4978762;28;20324;-69
2022/06/26 05:17:00;;;;;;;4.07;1.90;;;17.40;97.30;;;;;;4953887;28;20430;-68
2022/06/26 05:19:25;;;;;;;4.55;2.00;;;17.30;97.30;;;;;;4954570;28;20031;-68
2022/06/26 05:21:52;;;;;;;3.97;2.22;;;17.30;97.10;;;;;;4946878;28;20030;-68
2022/06/26 05:24:18;;;;;;;3.88;2.08;;;17.20;97.10;;;;;;4949959;28;20093;-69
2022/06/26 05:26:44;;;;;;;6.05;2.20;;;17.20;97.10;;;;;;4954235;28;20069;-69
2022/06/26 05:29:10;;;;;;;8.15;2.92;;;17.20;97.30;;;;;;4955517;28;20312;-68
2022/06/26 05:31:35;;;;;;;7.05;3.63;;;17.20;97.10;;;;;;4959877;28;20026;-68
2022/06/26 05:34:01;;;;;;;8.13;3.40;;;17.20;97.20;;;;;;4965145;28;20033;-68
2022/06/26 05:36:27;;;;;;;4.55;2.10;;;17.20;97.00;;;;;;4940365;28;20093;-69
2022/06/26 05:38:52;;;;;;;3.47;2.00;;;17.10;97.20;;;;;;4957496;28;20027;-68
2022/06/26 05:41:18;;;;;;;3.85;2.22;;;17.20;97.20;;;;;;4952563;28;20053;-68
2022/06/26 05:43:44;;;;;;;7.57;2.25;;;17.10;97.20;;;;;;4952761;29;20035;-68
2022/06/26 05:46:11;;;;;;;6.10;2.03;;;17.00;97.00;;;;;;4953986;28;20046;-70
2022/06/26 05:48:37;;;;;;;5.05;2.20;;;17.00;96.60;;;;;;4952995;28;20039;-69
2022/06/26 05:51:03;;;;;;;4.13;2.10;;;16.90;96.70;;;;;;4956785;28;20302;-68
2022/06/26 05:53:29;;;;;;;3.85;2.17;;;16.90;97.00;;;;;;4952030;28;20086;-69
2022/06/26 05:55:54;;;;;;;4.95;1.90;;;17.00;96.70;;;;;;4952246;28;20036;-68
2022/06/26 05:58:20;;;;;;;3.15;1.70;;;17.30;97.00;;;;;;4949635;29;20034;-68
2022/06/26 06:00:45;;;;;;;3.55;2.13;;;17.50;97.10;;;;;;4960630;28;20042;-68
2022/06/26 06:03:11;;;;;;;4.18;1.73;;;17.80;97.60;;;;;;4951985;28;21802;-68
2022/06/26 06:05:37;;;;;;;4.30;1.70;;;18.00;97.60;;;;;;4949109;28;20042;-68
2022/06/26 06:08:03;;;;;;;4.10;1.77;;;18.20;97.50;;;;;;4956727;28;20456;-69
2022/06/26 06:10:29;;;;;;;3.88;1.50;;;18.40;97.20;;;;;;4955217;28;20039;-69
2022/06/26 06:12:55;;;;;;;2.72;1.52;;;18.60;96.20;;;;;;4981102;28;20465;-68
2022/06/26 06:15:21;;;;;;;3.00;1.60;;;18.80;95.70;;;;;;4954201;28;20063;-68
2022/06/26 06:17:48;;;;;;;3.38;1.58;;;19.00;94.80;;;;;;4950591;29;20031;-69
2022/06/26 06:20:19;;;;;;;3.45;1.50;;;19.20;93.60;;;;;;4954287;28;20112;-68
2022/06/26 06:22:52;;;;;;;4.07;1.50;;;19.40;93.00;;;;;;4953815;28;20031;-68
2022/06/26 06:25:18;;;;;;;2.78;1.38;;;19.50;92.00;;;;;;4956074;28;21225;-68
2022/06/26 06:27:44;;;;;;;3.38;1.50;;;19.70;91.30;;;;;;4959892;28;20019;-68
2022/06/26 06:30:10;;;;;;;2.95;1.50;;;19.90;91.90;;;;;;4954406;29;20406;-69
2022/06/26 06:32:36;;;;;;;3.40;1.60;;;20.10;91.30;;;;;;4953516;28;20145;-69
2022/06/26 06:35:03;;;;;;;3.63;1.90;;;20.30;91.10;;;;;;4955640;29;20110;-69
2022/06/26 06:37:29;;;;;;;2.90;1.40;;;20.40;90.70;;;;;;4954440;28;20177;-69
2022/06/26 06:39:55;;;;;;;2.95;1.65;;;20.40;89.40;;;;;;4955952;28;20142;-69
2022/06/26 06:42:20;;;;;;;2.88;1.70;;;20.50;89.60;;;;;;4954645;28;20415;-69
2022/06/26 06:44:46;;;;;;;2.55;1.55;;;20.60;89.50;;;;;;4958702;28;20061;-69
2022/06/26 06:47:12;;;;;;;2.78;1.50;;;20.70;89.20;;;;;;4957962;28;20041;-68
2022/06/26 06:49:38;;;;;;;4.18;1.70;;;20.80;88.90;;;;;;4963050;28;20036;-68
2022/06/26 06:52:05;;;;;;;2.88;1.55;;;21.00;88.50;;;;;;4975066;28;20042;-68
2022/06/26 06:54:30;;;;;;;2.75;1.52;;;21.10;87.90;;;;;;4954338;28;20331;-69
2022/06/26 06:56:56;;;;;;;3.83;1.60;;;21.20;86.90;;;;;;4946143;28;20035;-68
2022/06/26 06:59:22;;;;;;;3.42;1.35;;;21.20;86.50;;;;;;4954956;28;20046;-68
2022/06/26 07:01:47;;;;;;;2.42;1.30;;;21.40;86.00;;;;;;4953200;28;20055;-68
2022/06/26 07:04:13;;;;;;;4.18;1.30;;;21.60;85.60;;;;;;4955385;28;20035;-70
2022/06/26 07:06:39;;;;;;;2.53;1.30;;;21.70;84.30;;;;;;4970244;28;20320;-69
2022/06/26 07:09:05;;;;;;;3.78;1.70;;;21.80;85.20;;;;;;4954132;28;20105;-68
2022/06/26 07:11:34;;;;;;;3.30;1.50;;;21.90;86.50;;;;;;4942516;28;20066;-68
2022/06/26 07:14:00;;;;;;;3.28;1.50;;;21.90;86.50;;;;;;4934550;28;20050;-68
2022/06/26 07:16:26;;;;;;;3.25;1.50;;;21.80;87.40;;;;;;4934670;28;20040;-68
2022/06/26 07:18:55;;;;;;;3.35;1.48;;;21.80;87.40;;;;;;4938802;28;20609;-68
2022/06/26 07:21:21;;;;;;;3.72;1.75;;;21.90;87.60;;;;;;4932655;28;20039;-68
2022/06/26 07:23:47;;;;;;;3.67;1.40;;;21.90;87.00;;;;;;4942497;28;20368;-68
2022/06/26 07:26:12;;;;;;;3.78;1.50;;;22.30;86.90;;;;;;4933247;28;20039;-68
2022/06/26 07:28:38;;;;;;;4.05;1.52;;;23.10;83.20;;;;;;4936164;28;20838;-68
2022/06/26 07:31:04;;;;;;;3.28;1.30;;;24.20;80.70;;;;;;4937600;28;20100;-68
2022/06/26 07:36:13;;;;;;;;;;;25.60;77.20;;;;;;4953056;28;20077;-68
2022/06/26 07:38:40;;;;;;;2.15;1.10;;;26.40;74.90;;;;;;4939227;28;19918;-68
2022/06/26 07:41:06;;;;;;;2.85;1.08;;;26.90;72.70;;;;;;4933691;28;20114;-68
2022/06/26 07:43:31;;;;;;;2.97;1.33;;;27.20;71.80;;;;;;4947502;28;20114;-68
2022/06/26 07:46:00;;;;;;;2.95;1.25;;;27.30;72.00;;;;;;4950160;28;20031;-68
2022/06/26 07:48:25;;;;;;;2.88;1.20;;;27.70;70.60;;;;;;4947965;28;20109;-68
2022/06/26 07:50:51;;;;;;;3.35;1.10;;;27.80;70.50;;;;;;4961405;28;20166;-68
2022/06/26 07:53:18;;;;;;;3.63;1.17;;;28.20;70.90;;;;;;4946822;28;20065;-70
2022/06/26 07:55:43;;;;;;;2.95;1.20;;;28.50;69.50;;;;;;4954928;28;20024;-70
2022/06/26 07:58:09;;;;;;;3.13;1.00;;;27.80;71.10;;;;;;4958865;28;20037;-70
2022/06/26 08:00:35;;;;;;;2.50;1.30;;;27.90;71.90;;;;;;4975108;28;20424;-70
2022/06/26 08:03:09;;;;;;;2.65;1.20;;;28.10;71.20;;;;;;4954759;28;20058;-70
2022/06/26 08:05:35;;;;;;;3.53;1.08;;;28.60;68.30;;;;;;4955154;28;20034;-70
2022/06/26 08:08:01;;;;;;;2.67;1.10;;;28.60;67.70;;;;;;4953430;28;20045;-70
2022/06/26 08:10:29;;;;;;;2.45;0.90;;;28.20;68.90;;;;;;4973569;28;20435;-69
2022/06/26 08:12:55;;;;;;;1.92;0.98;;;28.90;67.40;;;;;;4951351;28;20051;-68
2022/06/26 08:15:22;;;;;;;3.55;1.10;;;29.10;67.00;;;;;;4955258;28;20030;-69
2022/06/26 08:17:48;;;;;;;2.20;1.02;;;30.00;66.30;;;;;;4947783;28;20023;-69
2022/06/26 08:20:14;;;;;;;3.53;1.10;;;30.20;64.90;;;;;;4953077;28;20054;-69
2022/06/26 08:22:39;;;;;;;1.55;1.00;;;30.10;64.40;;;;;;4948221;28;20133;-68
2022/06/26 08:25:05;;;;;;;3.00;1.00;;;29.10;65.70;;;;;;4948588;28;20062;-69
2022/06/26 08:27:31;;;;;;;2.20;1.05;;;28.30;68.00;;;;;;4977795;28;20077;-69
2022/06/26 08:29:57;;;;;;;2.03;0.93;;;28.10;68.50;;;;;;4965595;28;20055;-69
2022/06/26 08:32:22;;;;;;;3.42;1.00;;;28.30;68.50;;;;;;4956728;28;20037;-67
2022/06/26 08:34:48;;;;;;;2.65;1.13;;;28.90;66.80;;;;;;4952077;28;20074;-68
2022/06/26 08:37:15;;;;;;;2.97;1.20;;;29.40;66.60;;;;;;4952463;28;20039;-69
2022/06/26 08:39:41;;;;;;;2.53;0.90;;;29.60;65.70;;;;;;4954345;29;20067;-68
2022/06/26 08:42:08;;;;;;;2.60;1.10;;;29.50;65.50;;;;;;4970605;28;20051;-69
2022/06/26 08:44:33;;;;;;;3.67;1.05;;;29.70;65.40;;;;;;4948210;28;20023;-68
2022/06/26 08:47:02;;;;;;;2.83;1.13;;;30.10;64.80;;;;;;4958211;28;20060;-67
2022/06/26 08:49:27;;;;;;;2.90;1.15;;;30.30;64.60;;;;;;4951231;28;20114;-68
2022/06/26 08:51:53;;;;;;;3.00;1.13;;;30.90;64.20;;;;;;4950977;28;20102;-70
2022/06/26 08:54:20;;;;;;;3.17;1.13;;;30.60;63.70;;;;;;4954089;28;20053;-68
2022/06/26 08:56:48;;;;;;;2.80;1.20;;;30.30;63.40;;;;;;4946149;28;20519;-68
2022/06/26 08:59:16;;;;;;;2.65;1.08;;;29.90;64.70;;;;;;4942544;28;20067;-68
2022/06/26 09:01:42;;;;;;;2.30;1.00;;;29.40;65.90;;;;;;4949087;28;20027;-68
2022/06/26 09:04:09;;;;;;;2.67;1.05;;;29.30;66.60;;;;;;4945471;28;20031;-69
2022/06/26 09:06:37;;;;;;;2.08;1.10;;;29.70;66.20;;;;;;4960534;28;20033;-68
2022/06/26 09:09:22;;;;;;;2.83;1.30;;;29.20;66.10;;;;;;4981325;28;20027;-68
2022/06/26 09:11:49;;;;;;;2.50;1.00;;;28.40;67.50;;;;;;4944608;28;20050;-68
2022/06/26 09:14:15;;;;;;;2.47;1.05;;;28.50;68.10;;;;;;4953209;28;20055;-68
2022/06/26 09:16:47;;;;;;;2.10;1.10;;;28.50;68.40;;;;;;4957190;28;20019;-68
2022/06/26 09:19:16;;;;;;;3.10;1.23;;;28.10;68.10;;;;;;4954311;28;20027;-68
2022/06/26 09:21:43;;;;;;;2.05;1.13;;;28.00;68.50;;;;;;4951084;28;20101;-68
2022/06/26 09:24:14;;;;;;;1.90;0.95;;;28.20;69.00;;;;;;4944538;28;20106;-67
2022/06/26 09:26:41;;;;;;;4.30;1.20;;;28.40;67.70;;;;;;4948829;28;20054;-68
2022/06/26 09:29:17;;;;;;;3.05;1.25;;;27.90;68.60;;;;;;4954016;28;20019;-69
2022/06/26 09:31:44;;;;;;;3.42;1.40;;;27.50;70.60;;;;;;4953558;28;20035;-69
2022/06/26 09:34:25;;;;;;;3.17;1.58;;;27.50;69.80;;;;;;4951101;28;20487;-68
2022/06/26 09:37:03;;;;;;;2.67;1.25;;;27.40;70.10;;;;;;4950969;28;20031;-69
2022/06/26 09:39:31;;;;;;;2.63;1.17;;;27.20;71.10;;;;;;4952871;28;20130;-69
2022/06/26 09:42:02;;;;;;;2.05;1.30;;;27.30;70.30;;;;;;4946600;28;20038;-69
2022/06/26 09:44:28;;;;;;;2.92;1.40;;;27.60;69.90;;;;;;4943701;28;20072;-69
2022/06/26 09:46:54;;;;;;;2.50;1.10;;;27.40;69.90;;;;;;4947648;28;20023;-69
2022/06/26 09:49:21;;;;;;;2.38;1.10;;;27.70;71.00;;;;;;4952375;28;20302;-68
2022/06/26 09:51:47;;;;;;;2.25;1.27;;;28.00;69.20;;;;;;4939178;28;20142;-70
2022/06/26 09:54:14;;;;;;;3.22;1.30;;;28.00;68.60;;;;;;4960383;28;20025;-69
2022/06/26 09:56:40;;;;;;;1.65;0.90;;;27.50;69.40;;;;;;4942003;28;20042;-68
2022/06/26 09:59:08;;;;;;;3.03;1.35;;;27.20;70.20;;;;;;4952731;28;20107;-69
2022/06/26 10:07:09;;;;;;;2.88;1.15;;;29.10;68.00;;;;;;4949031;28;20037;-69
2022/06/26 10:09:35;;;;;;;3.47;1.25;;;29.00;68.10;;;;;;4949594;29;20490;-69
2022/06/26 10:12:03;;;;;;;1.83;0.98;;;29.40;66.10;;;;;;4965618;28;20076;-69
2022/06/26 10:14:35;;;;;;;2.00;1.00;;;29.60;64.80;;;;;;4949960;28;20474;-69
2022/06/26 10:17:22;;;;;;;3.10;1.42;;;29.60;64.50;;;;;;4947972;28;20112;-67
2022/06/26 10:20:09;;;;;;;3.53;1.25;;;29.10;65.90;;;;;;4953541;28;20027;-68
2022/06/26 10:22:43;;;;;;;3.55;1.10;;;29.40;66.40;;;;;;4955103;28;20028;-69
2022/06/26 10:25:26;;;;;;;2.55;1.20;;;29.50;64.80;;;;;;4955771;28;20035;-68
2022/06/26 10:27:53;;;;;;;2.15;1.00;;;29.30;65.00;;;;;;4953227;28;20077;-69
2022/06/26 10:30:27;;;;;;;3.10;1.27;;;29.30;64.20;;;;;;4958222;28;20035;-69
2022/06/26 10:33:10;;;;;;;4.10;0.80;;;29.60;64.60;;;;;;4951391;29;20027;-68
2022/06/26 10:35:47;;;;;;;2.72;1.20;;;29.70;63.90;;;;;;4950229;28;20508;-69
2022/06/26 10:38:20;;;;;;;4.82;1.30;;;30.40;62.60;;;;;;4960255;28;20043;-68
2022/06/26 10:43:48;;;;;;;2.63;1.17;;;30.40;61.70;;;;;;5022035;28;20084;-68
2022/06/26 10:46:14;;;;;;;2.88;1.20;;;29.50;63.60;;;;;;4963081;28;20058;-67
2022/06/26 10:48:53;;;;;;;3.40;1.17;;;29.30;63.80;;;;;;4955428;28;20028;-70
2022/06/26 10:51:29;;;;;;;2.63;1.20;;;29.50;63.20;;;;;;4955848;28;20099;-70
2022/06/26 10:53:56;;;;;;;2.03;1.00;;;30.20;62.70;;;;;;4954727;28;20318;-70
2022/06/26 10:56:22;;;;;;;2.22;1.10;;;30.20;62.70;;;;;;4955837;28;20055;-68
2022/06/26 10:58:57;;;;;;;2.50;1.00;;;29.90;64.40;;;;;;4954309;28;20066;-69
2022/06/26 11:01:25;;;;;;;2.60;1.00;;;29.90;63.40;;;;;;4953296;29;20085;-70
2022/06/26 11:03:51;;;;;;;2.97;1.20;;;29.80;63.90;;;;;;4956086;28;20038;-68
2022/06/26 11:06:17;;;;;;;2.75;1.13;;;29.80;62.50;;;;;;4954061;28;20031;-69
2022/06/26 11:08:51;;;;;;;2.00;1.00;;;29.40;65.00;;;;;;4964400;28;20023;-69
2022/06/26 11:11:20;;;;;;;3.38;1.20;;;29.30;63.90;;;;;;4968410;28;20370;-68
2022/06/26 11:14:12;;;;;;;2.63;1.20;;;29.30;65.10;;;;;;4954474;28;20047;-68
2022/06/26 11:16:44;;;;;;;2.92;1.20;;;29.00;65.10;;;;;;4962558;28;20041;-68
2022/06/26 11:19:28;;;;;;;3.50;1.25;;;29.50;65.40;;;;;;4966911;28;20051;-68
2022/06/26 11:22:10;;;;;;;2.80;1.17;;;29.50;62.90;;;;;;4954452;29;20031;-68
2022/06/26 11:24:47;;;;;;;3.22;1.20;;;29.10;65.00;;;;;;4953041;28;20105;-68
2022/06/26 11:27:14;;;;;;;3.20;1.30;;;28.90;65.90;;;;;;4954968;28;20416;-68
2022/06/26 11:29:40;;;;;;;2.42;1.20;;;28.90;66.30;;;;;;4955000;28;20031;-68
2022/06/26 11:32:08;;;;;;;2.33;1.10;;;28.60;66.90;;;;;;4955236;28;20436;-68
2022/06/26 11:34:35;;;;;;;2.78;1.23;;;28.80;66.90;;;;;;4952958;28;20047;-69
2022/06/26 11:37:02;;;;;;;1.85;1.00;;;29.00;65.50;;;;;;4947862;28;20020;-68
2022/06/26 11:39:41;;;;;;;2.53;1.15;;;28.60;66.80;;;;;;4964078;28;20032;-68
2022/06/26 11:42:16;;;;;;;1.80;1.20;;;28.60;68.10;;;;;;4954142;28;20429;-68
2022/06/26 11:44:53;;;;;;;3.75;1.20;;;28.90;66.70;;;;;;4954971;28;20147;-68
2022/06/26 11:47:21;;;;;;;3.20;1.40;;;29.10;66.30;;;;;;4955016;28;20416;-68
2022/06/26 11:49:49;;;;;;;4.03;1.50;;;29.20;66.70;;;;;;4974368;28;20037;-69
2022/06/26 11:52:17;;;;;;;2.88;1.30;;;29.00;65.80;;;;;;4963548;28;20039;-68
2022/06/26 11:54:43;;;;;;;4.15;1.20;;;29.00;66.90;;;;;;4996455;28;20090;-68
2022/06/26 11:57:11;;;;;;;4.03;1.27;;;28.90;66.80;;;;;;4988591;28;20349;-68
2022/06/26 11:59:46;;;;;;;1.92;1.15;;;29.20;67.20;;;;;;4954594;28;20030;-68
2022/06/26 12:02:21;;;;;;;3.20;1.10;;;29.70;67.30;;;;;;4954199;29;20641;-69
2022/06/26 12:04:58;;;;;;;2.83;1.40;;;29.90;65.60;;;;;;4965527;28;20033;-68
2022/06/26 12:07:24;;;;;;;2.30;1.20;;;30.10;65.40;;;;;;4957414;28;20024;-69
2022/06/26 12:09:50;;;;;;;2.28;1.05;;;29.70;64.50;;;;;;4954717;28;20030;-69
2022/06/26 12:12:16;;;;;;;2.33;1.23;;;28.90;67.50;;;;;;4952983;28;20051;-68
2022/06/26 12:14:53;;;;;;;3.33;1.20;;;29.10;67.50;;;;;;4953566;28;20090;-68
2022/06/26 12:17:26;;;;;;;3.17;1.20;;;29.00;67.00;;;;;;4949021;29;20054;-68
2022/06/26 12:19:53;;;;;;;4.25;1.20;;;29.30;65.90;;;;;;4962190;28;20104;-68
2022/06/26 12:22:33;;;;;;;2.00;1.10;;;29.40;67.00;;;;;;4972943;28;20038;-69
2022/06/26 12:25:00;;;;;;;2.83;1.35;;;29.70;67.40;;;;;;5033444;28;20021;-69
2022/06/26 12:27:43;;;;;;;3.03;1.20;;;30.30;64.90;;;;;;5055192;28;20441;-69
2022/06/26 12:30:16;;;;;;;3.08;1.40;;;30.20;65.00;;;;;;5031733;28;20746;-69
2022/06/26 12:32:43;;;;;;;4.85;1.30;;;30.20;63.60;;;;;;4954667;28;20035;-69
2022/06/26 12:35:09;;;;;;;2.72;1.25;;;30.00;64.20;;;;;;4954367;28;20098;-69
2022/06/26 12:37:36;;;;;;;3.00;1.10;;;29.60;65.30;;;;;;4953365;28;20145;-69
2022/06/26 12:40:03;;;;;;;2.63;1.42;;;29.20;65.50;;;;;;5039038;28;20361;-69
2022/06/26 12:42:28;;;;;;;2.50;1.25;;;29.10;67.00;;;;;;5055152;28;20024;-69
2022/06/26 12:44:54;;;;;;;2.38;1.13;;;29.40;65.60;;;;;;5054975;28;20079;-69
2022/06/26 12:47:20;;;;;;;2.80;1.20;;;29.90;65.30;;;;;;4966824;28;20031;-69
2022/06/26 12:49:46;;;;;;;2.20;1.20;;;30.20;64.00;;;;;;4952369;28;20032;-69
2022/06/26 12:52:12;;;;;;;2.30;1.25;;;30.40;64.50;;;;;;4952976;28;20304;-69
2022/06/26 12:54:38;;;;;;;2.35;1.10;;;30.50;62.60;;;;;;5030312;28;20025;-68
2022/06/26 12:57:04;;;;;;;3.60;1.13;;;30.40;62.50;;;;;;5055058;28;20418;-69
2022/06/26 12:59:29;;;;;;;2.03;1.00;;;30.30;64.30;;;;;;5015366;28;20035;-69
2022/06/26 13:01:55;;;;;;;3.53;1.00;;;30.60;63.60;;;;;;4953883;28;20582;-69
2022/06/26 13:04:21;;;;;;;1.73;1.00;;;30.70;63.10;;;;;;4955617;28;20023;-69